createdAt,value
2022-11-21T00:01:24.159Z,13.27
2022-11-21T00:03:51.390Z,12.63
2022-11-21T00:06:19.562Z,12.63
2022-11-21T00:08:47.135Z,13.98
2022-11-21T00:11:14.268Z,13.82
2022-11-21T00:13:41.240Z,13.13
2022-11-21T00:16:13.501Z,13.30
2022-11-21T00:18:40.670Z,13.27
2022-11-21T00:21:15.777Z,13.38
2022-11-21T00:23:43.910Z,13.32
2022-11-21T00:26:12.530Z,12.70
2022-11-21T00:28:39.659Z,14.20
2022-11-21T00:31:07.240Z,13.90
2022-11-21T00:33:39.107Z,14.05
2022-11-21T00:36:10.046Z,13.20
2022-11-21T00:38:37.578Z,13.40
2022-11-21T00:41:05.083Z,14.05
2022-11-21T00:43:32.333Z,14.02
2022-11-21T00:46:01.420Z,14.07
2022-11-21T00:48:29.794Z,13.40
2022-11-21T00:50:56.841Z,14.20
2022-11-21T00:53:23.805Z,15.55
2022-11-21T00:55:50.699Z,15.77
2022-11-21T00:58:17.682Z,16.45
2022-11-21T01:00:44.695Z,16.70
2022-11-21T01:03:11.691Z,16.25
2022-11-21T01:05:38.654Z,15.15
2022-11-21T01:08:05.961Z,15.43
2022-11-21T01:10:35.515Z,13.43
2022-11-21T01:13:02.851Z,15.07
2022-11-21T01:15:29.818Z,14.07
2022-11-21T01:17:56.775Z,16.00
2022-11-21T01:20:23.716Z,15.13
2022-11-21T01:22:50.713Z,15.48
2022-11-21T01:25:17.695Z,16.05
2022-11-21T01:27:44.692Z,15.93
2022-11-21T01:30:12.200Z,16.35
2022-11-21T01:32:39.150Z,16.27
2022-11-21T01:35:06.665Z,16.75
2022-11-21T01:37:33.631Z,16.95
2022-11-21T01:40:00.630Z,16.95
2022-11-21T01:42:27.598Z,18.10
2022-11-21T01:44:54.755Z,17.65
2022-11-21T01:47:22.860Z,19.45
2022-11-21T01:49:52.290Z,18.08
2022-11-21T01:52:27.513Z,18.77
2022-11-21T01:55:00.665Z,17.52
2022-11-21T01:57:29.297Z,18.33
2022-11-21T01:59:56.199Z,16.40
2022-11-21T02:02:27.378Z,18.25
2022-11-21T02:04:55.913Z,19.25
2022-11-21T02:07:24.639Z,17.38
2022-11-21T02:09:56.163Z,17.35
2022-11-21T02:12:28.808Z,18.55
2022-11-21T02:14:56.726Z,18.55
2022-11-21T02:17:24.262Z,19.88
2022-11-21T02:19:57.228Z,18.83
2022-11-21T02:22:27.295Z,19.40
2022-11-21T02:25:09.883Z,19.40
2022-11-21T02:27:36.940Z,20.30
2022-11-21T02:30:06.507Z,21.17
2022-11-21T02:32:48.181Z,21.85
2022-11-21T02:35:17.446Z,21.48
2022-11-21T02:38:03.517Z,23.33
2022-11-21T02:41:11.114Z,23.45
2022-11-21T02:43:38.076Z,21.00
2022-11-21T02:46:05.110Z,22.05
2022-11-21T02:48:32.258Z,22.48
2022-11-21T02:50:59.286Z,22.38
2022-11-21T02:53:26.412Z,22.55
2022-11-21T02:55:53.469Z,21.20
2022-11-21T02:58:20.657Z,22.67
2022-11-21T03:00:47.983Z,23.00
2022-11-21T03:03:15.111Z,22.25
2022-11-21T03:05:42.459Z,24.17
2022-11-21T03:08:10.285Z,23.50
2022-11-21T03:10:37.552Z,25.13
2022-11-21T03:13:04.579Z,23.50
2022-11-21T03:15:34.422Z,25.02
2022-11-21T03:18:03.168Z,23.10
2022-11-21T03:20:32.061Z,23.88
2022-11-21T03:22:59.232Z,22.10
2022-11-21T03:25:26.694Z,23.48
2022-11-21T03:27:54.719Z,23.33
2022-11-21T03:30:25.759Z,24.67
2022-11-21T03:32:56.630Z,24.70
2022-11-21T03:35:24.022Z,24.73
2022-11-21T03:37:50.990Z,23.70
2022-11-21T03:40:18.413Z,23.65
2022-11-21T03:42:45.649Z,23.25
2022-11-21T03:45:12.935Z,21.88
2022-11-21T03:47:40.606Z,23.00
2022-11-21T03:50:08.063Z,22.63
2022-11-21T03:52:35.128Z,22.50
2022-11-21T03:55:02.274Z,23.83
2022-11-21T03:57:29.346Z,22.80
2022-11-21T03:59:56.759Z,24.05
2022-11-21T04:02:23.842Z,23.48
2022-11-21T04:04:51.228Z,23.80
2022-11-21T04:07:18.230Z,23.77
2022-11-21T04:09:45.234Z,24.45
2022-11-21T04:12:12.682Z,26.13
2022-11-21T04:14:39.728Z,25.50
2022-11-21T04:17:06.912Z,25.33
2022-11-21T04:19:33.931Z,24.38
2022-11-21T04:22:01.031Z,22.80
2022-11-21T04:24:28.243Z,22.05
2022-11-21T04:26:55.891Z,24.42
2022-11-21T04:29:22.936Z,23.80
2022-11-21T04:31:50.011Z,24.92
2022-11-21T04:34:17.030Z,25.17
2022-11-21T04:36:44.037Z,24.40
2022-11-21T04:39:11.100Z,23.95
2022-11-21T04:41:38.037Z,23.75
2022-11-21T04:44:05.243Z,23.95
2022-11-21T04:46:32.837Z,23.17
2022-11-21T04:49:00.345Z,23.33
2022-11-21T04:51:27.428Z,25.42
2022-11-21T04:53:54.435Z,26.38
2022-11-21T04:56:21.542Z,26.52
2022-11-21T04:58:53.143Z,24.38
2022-11-21T05:01:20.341Z,26.45
2022-11-21T05:03:47.681Z,28.13
2022-11-21T05:06:14.645Z,28.27
2022-11-21T05:08:42.312Z,28.70
2022-11-21T05:11:38.434Z,28.52
2022-11-21T05:14:06.080Z,27.90
2022-11-21T05:16:34.204Z,27.45
2022-11-21T05:19:01.347Z,28.75
2022-11-21T05:21:28.474Z,29.60
2022-11-21T05:23:55.640Z,29.33
2022-11-21T05:26:22.857Z,29.38
2022-11-21T05:28:49.863Z,30.73
2022-11-21T05:31:16.778Z,29.52
2022-11-21T05:33:43.877Z,28.60
2022-11-21T05:36:10.968Z,31.83
2022-11-21T05:38:38.174Z,32.13
2022-11-21T05:41:05.214Z,30.45
2022-11-21T05:43:47.171Z,30.55
2022-11-21T05:46:19.602Z,30.98
2022-11-21T05:48:48.055Z,31.58
2022-11-21T05:51:19.811Z,30.08
2022-11-21T05:53:47.583Z,32.05
2022-11-21T05:56:17.215Z,30.98
2022-11-21T05:58:45.237Z,30.17
2022-11-21T06:01:14.711Z,30.95
2022-11-21T06:03:43.198Z,30.17
2022-11-21T06:06:17.658Z,28.55
2022-11-21T06:08:47.473Z,29.83
2022-11-21T06:11:16.477Z,29.42
2022-11-21T06:13:43.856Z,28.48
2022-11-21T06:16:13.255Z,28.70
2022-11-21T06:18:45.365Z,29.90
2022-11-21T06:21:17.731Z,28.45
2022-11-21T06:23:45.542Z,27.95
2022-11-21T06:26:14.747Z,27.95
2022-11-21T06:28:42.790Z,28.50
2022-11-21T06:31:15.696Z,27.63
2022-11-21T06:33:43.666Z,25.73
2022-11-21T06:36:13.517Z,26.40
2022-11-21T06:38:40.543Z,25.50
2022-11-21T06:41:12.442Z,25.80
2022-11-21T06:43:39.500Z,25.63
2022-11-21T06:46:07.066Z,25.98
2022-11-21T06:48:35.527Z,23.92
2022-11-21T06:51:21.853Z,25.05
2022-11-21T06:53:56.709Z,24.23
2022-11-21T06:56:32.798Z,23.20
2022-11-21T06:58:59.945Z,22.73
2022-11-21T07:01:28.348Z,22.80
2022-11-21T07:03:55.627Z,23.10
2022-11-21T07:06:23.589Z,22.83
2022-11-21T07:09:17.481Z,21.95
2022-11-21T07:11:41.614Z,19.67
2022-11-21T07:14:09.733Z,19.48
2022-11-21T07:16:36.957Z,20.50
2022-11-21T07:19:03.918Z,21.73
2022-11-21T07:21:31.091Z,20.83
2022-11-21T07:23:58.105Z,20.70
2022-11-21T07:26:25.084Z,19.77
2022-11-21T07:28:52.104Z,20.00
2022-11-21T07:31:19.132Z,19.08
2022-11-21T07:33:47.607Z,19.90
2022-11-21T07:36:14.704Z,18.75
2022-11-21T07:38:42.329Z,17.63
2022-11-21T07:41:10.227Z,19.92
2022-11-21T07:43:37.289Z,19.33
2022-11-21T07:46:04.275Z,25.15
2022-11-21T07:48:31.258Z,23.45
2022-11-21T07:50:58.363Z,27.75
2022-11-21T07:53:25.449Z,24.30
2022-11-21T07:55:52.410Z,24.88
2022-11-21T07:58:19.591Z,25.08
2022-11-21T08:00:46.540Z,24.55
2022-11-21T08:03:13.845Z,23.70
2022-11-21T08:05:44.114Z,22.73
2022-11-21T08:08:12.989Z,25.30
2022-11-21T08:10:42.285Z,24.92
2022-11-21T08:13:09.492Z,26.05
2022-11-21T08:15:37.026Z,26.70
2022-11-21T08:18:11.692Z,27.80
2022-11-21T08:20:38.811Z,27.67
2022-11-21T08:23:06.892Z,25.40
2022-11-21T08:25:41.251Z,27.02
2022-11-21T08:28:10.380Z,26.05
2022-11-21T08:30:39.545Z,25.67
2022-11-21T08:33:07.109Z,25.75
2022-11-21T08:35:37.728Z,23.38
2022-11-21T08:38:05.434Z,24.45
2022-11-21T08:40:33.524Z,26.75
2022-11-21T08:43:02.757Z,25.80
2022-11-21T08:45:30.687Z,26.77
2022-11-21T08:47:58.058Z,29.40
2022-11-21T08:50:25.221Z,29.23
2022-11-21T08:52:52.350Z,29.95
2022-11-21T08:55:19.627Z,28.88
2022-11-21T08:57:46.675Z,28.85
2022-11-21T09:00:14.480Z,31.00
2022-11-21T09:02:41.951Z,32.53
2022-11-21T09:05:09.753Z,30.70
2022-11-21T09:07:37.310Z,31.10
2022-11-21T09:10:04.795Z,31.38
2022-11-21T09:12:32.108Z,31.52
2022-11-21T09:15:17.592Z,30.63
2022-11-21T09:18:03.051Z,28.92
2022-11-21T09:20:34.744Z,29.52
2022-11-21T09:23:06.422Z,29.55
2022-11-21T09:25:34.333Z,29.85
2022-11-21T09:28:03.791Z,31.13
2022-11-21T09:30:31.095Z,29.38
2022-11-21T09:33:04.908Z,30.35
2022-11-21T09:35:31.912Z,29.85
2022-11-21T09:37:59.552Z,29.90
2022-11-21T09:40:27.594Z,31.42
2022-11-21T09:43:39.224Z,31.50
2022-11-21T09:46:18.627Z,31.10
2022-11-21T09:48:58.413Z,32.22
2022-11-21T09:51:29.769Z,31.27
2022-11-21T09:54:20.261Z,31.10
2022-11-21T09:56:47.857Z,31.02
2022-11-21T09:59:29.502Z,30.00
2022-11-21T10:01:56.602Z,32.03
2022-11-21T10:04:23.859Z,30.10
2022-11-21T10:07:22.472Z,30.15
2022-11-21T10:10:38.512Z,29.73
2022-11-21T10:13:46.600Z,31.42
2022-11-21T10:16:34.066Z,30.35
2022-11-21T10:19:16.090Z,31.98
2022-11-21T10:21:49.546Z,33.22
2022-11-21T10:24:19.182Z,32.47
2022-11-21T10:27:01.187Z,32.88
2022-11-21T10:29:37.230Z,34.05
2022-11-21T10:32:24.894Z,36.22
2022-11-21T10:35:13.413Z,34.05
2022-11-21T10:37:46.993Z,34.97
2022-11-21T10:43:44.316Z,35.20
2022-11-21T10:46:11.346Z,32.83
2022-11-21T10:48:38.547Z,33.78
2022-11-21T10:51:38.571Z,32.95
2022-11-21T10:54:29.722Z,35.33
2022-11-21T10:57:15.991Z,34.92
2022-11-21T11:00:02.232Z,35.22
2022-11-21T11:02:29.139Z,33.65
2022-11-21T11:05:37.834Z,34.92
2022-11-21T11:08:14.227Z,34.47
2022-11-21T11:10:43.814Z,34.75
2022-11-21T11:13:50.920Z,34.20
2022-11-21T11:16:21.365Z,32.75
2022-11-21T11:19:17.351Z,34.55
2022-11-21T11:21:46.263Z,33.72
2022-11-21T11:24:13.171Z,33.47
2022-11-21T11:26:49.509Z,35.17
2022-11-21T11:29:20.084Z,35.60
2022-11-21T11:31:49.751Z,34.67
2022-11-21T11:34:17.815Z,35.95
2022-11-21T11:36:55.188Z,34.72
2022-11-21T11:39:39.591Z,34.17
2022-11-21T11:42:34.136Z,34.97
2022-11-21T11:45:39.058Z,32.17
2022-11-21T11:48:12.701Z,34.80
2022-11-21T11:53:18.702Z,32.90
2022-11-21T11:55:55.988Z,33.95
2022-11-21T11:58:47.554Z,33.78
2022-11-21T12:01:29.486Z,34.03
2022-11-21T12:04:21.423Z,34.72
2022-11-21T12:10:03.427Z,32.58
2022-11-21T12:12:37.374Z,32.00
2022-11-21T12:15:50.583Z,33.92
2022-11-21T12:18:26.155Z,31.42
2022-11-21T12:21:09.166Z,33.03
2022-11-21T12:23:47.066Z,33.87
2022-11-21T12:26:20.104Z,32.55
2022-11-21T12:29:08.290Z,35.03
2022-11-21T12:31:43.845Z,34.92
2022-11-21T12:34:24.301Z,32.08
2022-11-21T12:37:22.154Z,34.65
2022-11-21T12:40:21.417Z,32.40
2022-11-21T12:43:25.497Z,33.15
2022-11-21T12:46:20.085Z,32.85
2022-11-21T12:49:21.445Z,36.95
2022-11-21T12:52:42.238Z,35.00
2022-11-21T12:55:15.515Z,35.13
2022-11-21T13:03:03.746Z,37.03
2022-11-21T13:13:10.267Z,38.95
2022-11-21T13:16:11.691Z,40.67
2022-11-21T13:18:48.549Z,39.92
2022-11-21T13:21:46.036Z,39.10
2022-11-21T13:24:45.243Z,41.53
2022-11-21T13:27:38.938Z,40.55
2022-11-21T13:30:12.030Z,43.20
2022-11-21T13:32:43.578Z,42.05
2022-11-21T13:35:19.654Z,43.05
2022-11-21T13:37:49.652Z,44.78
2022-11-21T13:40:31.414Z,42.53
2022-11-21T13:43:32.508Z,42.40
2022-11-21T13:45:59.428Z,44.00
2022-11-21T13:48:34.593Z,42.92
2022-11-21T13:51:10.461Z,46.17
2022-11-21T13:54:09.090Z,43.92
2022-11-21T13:56:39.067Z,46.35
2022-11-21T13:59:15.154Z,47.95
2022-11-21T14:02:20.927Z,49.20
2022-11-21T14:05:33.529Z,48.25
2022-11-21T14:08:33.480Z,47.72
2022-11-21T14:11:30.024Z,46.25
2022-11-21T14:13:57.030Z,50.35
2022-11-21T14:16:49.395Z,49.53
2022-11-21T14:19:20.670Z,48.92
2022-11-21T14:21:49.207Z,49.00
2022-11-21T14:24:19.638Z,54.90
2022-11-21T14:26:49.916Z,57.10
2022-11-21T14:29:28.010Z,49.70
2022-11-21T14:31:56.114Z,51.53
2022-11-21T14:34:28.835Z,51.17
2022-11-21T14:36:59.692Z,49.85
2022-11-21T14:39:38.763Z,50.03
2022-11-21T14:42:15.574Z,53.60
2022-11-21T14:44:44.573Z,51.42
2022-11-21T14:47:25.853Z,48.65
2022-11-21T14:52:59.426Z,47.05
2022-11-21T14:55:31.019Z,53.45
2022-11-21T14:58:01.504Z,50.15
2022-11-21T15:00:58.051Z,52.67
2022-11-21T15:03:21.106Z,53.33
2022-11-21T15:06:06.905Z,54.60
2022-11-21T15:11:28.187Z,57.35
2022-11-21T15:14:17.287Z,57.65
2022-11-21T15:16:50.384Z,55.95
2022-11-21T15:19:21.729Z,56.33
2022-11-21T15:21:51.331Z,56.38
2022-11-21T15:24:30.122Z,56.15
2022-11-21T15:26:57.791Z,55.70
2022-11-21T15:29:25.058Z,56.28
2022-11-21T15:34:59.701Z,54.33
2022-11-21T15:37:27.864Z,54.97
2022-11-21T15:39:55.005Z,58.20
2022-11-21T15:42:34.136Z,61.40
2022-11-21T15:45:19.553Z,65.63
2022-11-21T15:47:47.508Z,63.22
2022-11-21T15:50:15.281Z,55.47
2022-11-21T15:52:50.631Z,61.38
2022-11-21T15:55:21.336Z,54.03
2022-11-21T15:57:15.365Z,58.15
2022-11-21T15:57:48.579Z,58.03
2022-11-21T16:00:17.420Z,56.80
2022-11-21T16:02:44.425Z,57.08
2022-11-21T16:05:13.124Z,60.17
2022-11-21T16:07:40.977Z,55.92
2022-11-21T16:10:15.374Z,57.67
2022-11-21T16:12:47.058Z,61.05
2022-11-21T16:15:14.326Z,64.10
2022-11-21T16:17:41.765Z,61.72
2022-11-21T16:20:09.267Z,56.88
2022-11-21T16:22:36.179Z,57.92
2022-11-21T16:25:03.266Z,62.63
2022-11-21T16:27:32.436Z,55.67
2022-11-21T16:29:59.431Z,55.00
2022-11-21T16:32:26.689Z,56.13
2022-11-21T16:34:54.769Z,57.30
2022-11-21T16:37:21.727Z,55.88
2022-11-21T16:39:52.079Z,57.38
2022-11-21T16:42:20.444Z,57.13
2022-11-21T16:44:48.162Z,56.78
2022-11-21T16:47:15.753Z,62.25
2022-11-21T16:49:48.434Z,58.78
2022-11-21T16:52:16.106Z,58.37
2022-11-21T16:54:43.101Z,58.08
2022-11-21T16:57:10.323Z,58.08
2022-11-21T16:59:37.320Z,59.95
2022-11-21T17:02:04.687Z,61.67
2022-11-21T17:04:32.112Z,59.75
2022-11-21T17:07:01.159Z,58.67
2022-11-21T17:09:28.504Z,57.72
2022-11-21T17:11:57.948Z,56.50
2022-11-21T17:14:25.016Z,54.58
2022-11-21T17:16:52.006Z,56.08
2022-11-21T17:19:19.023Z,53.03
2022-11-21T17:21:45.984Z,54.35
2022-11-21T17:24:13.568Z,54.05
2022-11-21T17:26:40.598Z,54.83
2022-11-21T17:29:07.803Z,52.03
2022-11-21T17:31:34.857Z,52.15
2022-11-21T17:34:02.048Z,50.67
2022-11-21T17:36:30.454Z,51.38
2022-11-21T17:38:57.499Z,51.88
2022-11-21T17:41:25.312Z,50.53
2022-11-21T17:43:59.743Z,49.58
2022-11-21T17:46:28.232Z,50.60
2022-11-21T17:48:59.180Z,49.60
2022-11-21T17:51:34.421Z,49.15
2022-11-21T17:54:02.669Z,56.60
2022-11-21T17:56:32.321Z,60.40
2022-11-21T17:58:59.960Z,52.58
2022-11-21T18:01:27.558Z,58.00
2022-11-21T18:04:10.290Z,65.95
2022-11-21T18:06:41.802Z,57.17
2022-11-21T18:09:13.638Z,55.95
2022-11-21T18:11:41.042Z,53.33
2022-11-21T18:14:10.317Z,50.42
2022-11-21T18:16:39.454Z,51.38
2022-11-21T18:19:07.716Z,58.05
2022-11-21T18:21:38.177Z,60.55
2022-11-21T18:24:05.399Z,58.67
2022-11-21T18:26:35.517Z,60.53
2022-11-21T18:31:50.964Z,58.17
2022-11-21T18:34:18.055Z,53.35
2022-11-21T18:36:45.030Z,52.92
2022-11-21T18:39:15.021Z,50.33
2022-11-21T18:41:42.910Z,48.38
2022-11-21T18:44:10.273Z,47.50
2022-11-21T18:46:38.772Z,45.17
2022-11-21T18:49:08.011Z,42.72
2022-11-21T18:51:36.547Z,41.15
2022-11-21T18:54:10.513Z,38.30
2022-11-21T18:56:38.790Z,36.60
2022-11-21T18:59:06.677Z,37.67
2022-11-21T19:01:35.825Z,34.25
2022-11-21T19:04:03.460Z,29.98
2022-11-21T19:06:30.466Z,31.42
2022-11-21T19:08:58.367Z,25.23
2022-11-21T19:11:27.843Z,22.45
2022-11-21T19:13:56.048Z,23.52
2022-11-21T19:16:24.979Z,23.77
2022-11-21T19:21:43.557Z,19.52
2022-11-21T19:24:15.129Z,24.73
2022-11-21T19:26:42.502Z,21.02
2022-11-21T19:29:09.836Z,19.27
2022-11-21T19:31:42.998Z,28.33
2022-11-21T19:34:15.527Z,24.85
2022-11-21T19:36:43.121Z,37.30
2022-11-21T19:39:10.255Z,41.60
2022-11-21T19:41:37.476Z,37.33
2022-11-21T19:44:04.506Z,30.85
2022-11-21T19:46:37.163Z,30.85
2022-11-21T19:49:06.587Z,29.63
2022-11-21T19:51:41.837Z,27.02
2022-11-21T19:54:11.190Z,26.38
2022-11-21T19:56:38.184Z,22.55
2022-11-21T19:59:05.593Z,23.67
2022-11-21T20:01:34.892Z,21.67
2022-11-21T20:04:04.582Z,21.10
2022-11-21T20:06:37.005Z,20.30
2022-11-21T20:09:15.740Z,20.38
2022-11-21T20:11:45.424Z,18.90
2022-11-21T20:14:21.517Z,16.60
2022-11-21T20:16:50.105Z,16.15
2022-11-21T20:19:19.233Z,17.73
2022-11-21T20:21:47.177Z,15.77
2022-11-21T20:24:14.770Z,16.38
2022-11-21T20:26:42.499Z,15.57
2022-11-21T20:29:13.242Z,16.25
2022-11-21T20:31:40.398Z,17.38
2022-11-21T20:34:12.598Z,15.98
2022-11-21T20:36:40.350Z,16.55
2022-11-21T20:39:18.553Z,14.40
2022-11-21T20:41:46.410Z,14.52
2022-11-21T20:47:10.382Z,12.85
2022-11-21T20:49:37.578Z,11.90
2022-11-21T20:54:55.411Z,13.05
2022-11-21T20:57:43.615Z,13.10
2022-11-21T21:00:11.898Z,12.73
2022-11-21T21:02:38.835Z,12.23
2022-11-21T21:05:06.263Z,12.20
2022-11-21T21:07:35.148Z,12.15
2022-11-21T21:10:02.643Z,12.25
2022-11-21T21:12:31.331Z,12.60
2022-11-21T21:14:58.375Z,13.45
2022-11-21T21:17:25.568Z,12.88
2022-11-21T21:19:57.890Z,12.27
2022-11-21T21:22:25.027Z,12.48
2022-11-21T21:24:51.943Z,13.45
2022-11-21T21:27:25.575Z,11.35
2022-11-21T21:29:53.457Z,12.52
2022-11-21T21:32:47.566Z,14.38
2022-11-21T21:35:17.690Z,13.55
2022-11-21T21:37:47.089Z,16.58
2022-11-21T21:40:16.518Z,15.07
2022-11-21T21:42:43.441Z,15.30
2022-11-21T21:45:10.892Z,15.55
2022-11-21T21:47:38.191Z,16.88
2022-11-21T21:50:05.528Z,15.45
2022-11-21T21:52:32.511Z,15.40
2022-11-21T21:54:59.433Z,14.40
2022-11-21T21:57:26.353Z,13.13
2022-11-21T21:59:53.326Z,14.20
2022-11-21T22:02:20.297Z,12.90
2022-11-21T22:04:51.805Z,12.75
2022-11-21T22:07:19.137Z,13.32
2022-11-21T22:09:46.080Z,13.75
2022-11-21T22:12:14.127Z,12.02
2022-11-21T22:14:41.080Z,12.45
2022-11-21T22:17:08.198Z,11.80
2022-11-21T22:19:35.187Z,13.98
2022-11-21T22:22:02.085Z,12.43
2022-11-21T22:24:29.041Z,13.23
2022-11-21T22:26:56.024Z,12.25
2022-11-21T22:29:23.152Z,12.38
2022-11-21T22:31:50.959Z,12.73
2022-11-21T22:34:18.065Z,12.90
2022-11-21T22:36:46.708Z,12.98
2022-11-21T22:39:13.915Z,14.30
2022-11-21T22:41:40.858Z,13.20
2022-11-21T22:44:07.779Z,12.63
2022-11-21T22:46:34.836Z,12.50
2022-11-21T22:49:01.802Z,13.93
2022-11-21T22:51:29.917Z,12.55
2022-11-21T22:53:57.661Z,12.85
2022-11-21T22:56:25.762Z,12.20
2022-11-21T22:58:52.771Z,11.90
2022-11-21T23:01:22.246Z,12.77
2022-11-21T23:03:50.302Z,13.63
2022-11-21T23:06:20.433Z,11.95
2022-11-21T23:08:47.950Z,12.48
2022-11-21T23:11:40.973Z,11.20
2022-11-21T23:14:44.663Z,11.52
2022-11-21T23:17:12.190Z,11.98
2022-11-21T23:19:39.180Z,11.65
2022-11-21T23:22:34.073Z,12.00
2022-11-21T23:25:01.059Z,12.15
2022-11-21T23:27:28.014Z,12.35
2022-11-21T23:29:54.903Z,10.60
2022-11-21T23:32:21.862Z,9.57
2022-11-21T23:35:00.560Z,8.25
2022-11-21T23:37:29.597Z,8.25
2022-11-21T23:39:56.536Z,9.50
2022-11-21T23:42:23.490Z,9.57
2022-11-21T23:44:50.525Z,10.98
2022-11-21T23:47:17.425Z,10.02
2022-11-21T23:49:52.114Z,8.77
2022-11-21T23:52:19.071Z,8.15
2022-11-21T23:54:46.023Z,7.40
2022-11-21T23:57:33.334Z,7.00
